Francisco C. Ada Saipan International Airport
PGSN : now visible

Airfield :











YOU CAN JOIN US ON...

 
LOGIN :

Register | Disclaimer

   EN    FR    IT 

 









Legend :    VFR   Marginal VFR   IFR   Intensive IFR   Very Intensive IFR
Visi :
Ceiling :
>= 8 km
>= 3000ft
5 to 8 km
1000 to 3000 ft
1500m to 5 km
500 to 1000 ft
800 to 1500m
200 to 500 ft
< 800m
< 200 ft
Symbols :   Thunderstorms  Fog  Heavy snow  Heavy precipitations  Wind > 20 kt






- Airport Elevation : 215 ft
- IATA code : SPN


PGSN - Francisco C. Ada Saipan International

CURRENT METAR :
  • 131454Z 09008KT 10SM FEW020 SCT028 28/25 A2985 RMK AO2 SLP127 T02780250 58006

EXPIRED METARs :
  • 131354Z 09010KT 10SM CLR 28/24 A2985 RMK AO2 SLP129 T02830244 403330267
  • 131254Z 08013KT 10SM FEW021 SCT027 28/25 A2987 RMK AO2 SLP135 T02830250
  • 131154Z 09011KT 10SM FEW070 29/25 A2987 RMK AO2 SLP134 60003 70003 T02940250 10322 20272 51016
  • 131054Z 09011KT 10SM SCT022 29/25 A2985 RMK AO2 SLP130 T02940250

TAF PGSN
Valid from the 13 at 12:00 until the 14 at 12:00 UTC


131120Z 1312/1412 08011KT P6SM VCSH FEW018 SCT035
PGZU FIR / Oceania



MET'MAP, your aeronautical weather chart ! - Copyright ORBIFLY December 2007 - Disclaimer

ORBIFLY MET'MAP TEAM :

Programming & Development : Alexandra Zaïnal
Original concept : Baudouin d'Aumeries
Technical & hardware support : Manuel Goepfert
Assistance : Marc-Olivier Méhu




SOURCES & CREDITS :

   NOAA       Earth
Advisory